Terminal Aerodrome Forecast
Issued by NWS

Home | Current Version | Previous Version | Text Only | Print | Product List | Glossary On
Versions: 1 2 3 4 5 6 7 8 9 10 11 12 13
357
FTUS43 KICT 202025 AAA
TAFCNU
TAF AMD
KCNU 202025Z 2020/2118 34012KT P6SM BKN120
     FM210100 01008KT P6SM BKN120
     FM210800 05008KT P6SM VCSH OVC060
     FM211400 06009KT P6SM -SHRA BKN025 OVC050=

USA.gov is the U.S. government's official web portal to all federal, state and local government web resources and services.